sensor_id;sensor_type;location;lat;lon;timestamp;P1;durP1;ratioP1;P2;durP2;ratioP2
77246;SDS011;66279;42.820;23.374;2023-03-14T00:32:26;10.70;;;4.80;;
77246;SDS011;66279;42.820;23.374;2023-03-14T00:34:51;15.02;;;6.25;;
77246;SDS011;66279;42.820;23.374;2023-03-14T00:49:38;14.20;;;4.50;;
77246;SDS011;66279;42.820;23.374;2023-03-14T01:06:50;15.52;;;5.30;;
77246;SDS011;66279;42.820;23.374;2023-03-14T01:09:17;12.85;;;5.50;;
77246;SDS011;66279;42.820;23.374;2023-03-14T01:11:43;16.25;;;5.82;;
77246;SDS011;66279;42.820;23.374;2023-03-14T01:14:11;16.65;;;6.00;;
77246;SDS011;66279;42.820;23.374;2023-03-14T01:24:01;16.15;;;5.22;;
77246;SDS011;66279;42.820;23.374;2023-03-14T01:26:29;13.68;;;5.13;;
77246;SDS011;66279;42.820;23.374;2023-03-14T01:28:56;12.45;;;5.20;;
77246;SDS011;66279;42.820;23.374;2023-03-14T01:31:22;12.68;;;5.05;;
77246;SDS011;66279;42.820;23.374;2023-03-14T01:33:50;17.42;;;5.78;;
77246;SDS011;66279;42.820;23.374;2023-03-14T01:38:43;14.35;;;4.72;;
77246;SDS011;66279;42.820;23.374;2023-03-14T01:41:12;10.77;;;4.75;;
77246;SDS011;66279;42.820;23.374;2023-03-14T01:43:40;64.15;;;18.55;;
77246;SDS011;66279;42.820;23.374;2023-03-14T01:51:14;13.90;;;5.65;;
77246;SDS011;66279;42.820;23.374;2023-03-14T01:53:46;8.73;;;3.15;;
77246;SDS011;66279;42.820;23.374;2023-03-14T01:56:14;12.18;;;3.33;;
77246;SDS011;66279;42.820;23.374;2023-03-14T01:58:43;12.40;;;4.35;;
77246;SDS011;66279;42.820;23.374;2023-03-14T02:01:12;8.50;;;2.70;;
77246;SDS011;66279;42.820;23.374;2023-03-14T02:03:44;7.32;;;3.30;;
77246;SDS011;66279;42.820;23.374;2023-03-14T02:06:15;12.70;;;4.90;;
77246;SDS011;66279;42.820;23.374;2023-03-14T02:11:13;12.40;;;5.07;;
77246;SDS011;66279;42.820;23.374;2023-03-14T02:13:39;11.68;;;4.88;;
77246;SDS011;66279;42.820;23.374;2023-03-14T02:16:05;8.57;;;3.80;;
77246;SDS011;66279;42.820;23.374;2023-03-14T02:18:31;14.05;;;3.55;;
77246;SDS011;66279;42.820;23.374;2023-03-14T02:21:41;9.70;;;4.13;;
77246;SDS011;66279;42.820;23.374;2023-03-14T02:26:38;8.80;;;3.40;;
77246;SDS011;66279;42.820;23.374;2023-03-14T02:29:08;9.40;;;4.32;;
77246;SDS011;66279;42.820;23.374;2023-03-14T02:31:34;10.32;;;4.68;;
77246;SDS011;66279;42.820;23.374;2023-03-14T02:34:00;11.63;;;5.07;;
77246;SDS011;66279;42.820;23.374;2023-03-14T02:36:27;15.18;;;6.35;;
77246;SDS011;66279;42.820;23.374;2023-03-14T02:38:56;10.68;;;4.00;;
77246;SDS011;66279;42.820;23.374;2023-03-14T02:41:29;10.73;;;3.88;;
77246;SDS011;66279;42.820;23.374;2023-03-14T02:43:55;10.15;;;3.20;;
77246;SDS011;66279;42.820;23.374;2023-03-14T02:46:22;6.15;;;3.10;;
77246;SDS011;66279;42.820;23.374;2023-03-14T02:48:50;13.82;;;4.53;;
77246;SDS011;66279;42.820;23.374;2023-03-14T02:51:26;12.43;;;4.55;;
77246;SDS011;66279;42.820;23.374;2023-03-14T02:53:52;12.43;;;5.03;;
77246;SDS011;66279;42.820;23.374;2023-03-14T02:56:19;11.27;;;3.45;;
77246;SDS011;66279;42.820;23.374;2023-03-14T02:58:45;12.18;;;4.70;;
77246;SDS011;66279;42.820;23.374;2023-03-14T03:01:10;12.20;;;4.32;;
77246;SDS011;66279;42.820;23.374;2023-03-14T03:03:36;10.35;;;3.03;;
77246;SDS011;66279;42.820;23.374;2023-03-14T03:06:01;10.48;;;3.75;;
77246;SDS011;66279;42.820;23.374;2023-03-14T03:08:27;11.27;;;3.78;;
77246;SDS011;66279;42.820;23.374;2023-03-14T03:10:54;10.60;;;4.90;;
77246;SDS011;66279;42.820;23.374;2023-03-14T03:13:20;9.38;;;4.80;;
77246;SDS011;66279;42.820;23.374;2023-03-14T03:15:46;12.93;;;4.30;;
77246;SDS011;66279;42.820;23.374;2023-03-14T03:18:12;17.85;;;5.43;;
77246;SDS011;66279;42.820;23.374;2023-03-14T03:20:37;9.38;;;4.40;;
77246;SDS011;66279;42.820;23.374;2023-03-14T03:23:03;24.33;;;5.82;;
77246;SDS011;66279;42.820;23.374;2023-03-14T03:25:29;16.15;;;6.10;;
77246;SDS011;66279;42.820;23.374;2023-03-14T03:27:54;13.35;;;4.28;;
77246;SDS011;66279;42.820;23.374;2023-03-14T03:30:20;9.00;;;4.65;;
77246;SDS011;66279;42.820;23.374;2023-03-14T03:45:04;30.90;;;8.85;;
77246;SDS011;66279;42.820;23.374;2023-03-14T03:49:58;23.48;;;9.80;;
77246;SDS011;66279;42.820;23.374;2023-03-14T03:52:23;17.75;;;6.85;;
77246;SDS011;66279;42.820;23.374;2023-03-14T04:07:09;10.13;;;3.30;;
77246;SDS011;66279;42.820;23.374;2023-03-14T04:09:36;10.85;;;5.43;;
77246;SDS011;66279;42.820;23.374;2023-03-14T04:12:02;10.15;;;4.20;;
77246;SDS011;66279;42.820;23.374;2023-03-14T04:14:28;12.70;;;4.80;;
77246;SDS011;66279;42.820;23.374;2023-03-14T04:16:53;11.63;;;4.38;;
77246;SDS011;66279;42.820;23.374;2023-03-14T04:24:14;11.57;;;5.28;;
77246;SDS011;66279;42.820;23.374;2023-03-14T04:26:39;13.70;;;4.93;;
77246;SDS011;66279;42.820;23.374;2023-03-14T04:29:05;18.02;;;5.00;;
77246;SDS011;66279;42.820;23.374;2023-03-14T04:31:30;12.88;;;4.68;;
77246;SDS011;66279;42.820;23.374;2023-03-14T04:33:56;9.32;;;4.85;;
77246;SDS011;66279;42.820;23.374;2023-03-14T04:36:22;12.82;;;5.30;;
77246;SDS011;66279;42.820;23.374;2023-03-14T04:38:47;13.65;;;4.30;;
77246;SDS011;66279;42.820;23.374;2023-03-14T04:41:13;15.35;;;5.13;;
77246;SDS011;66279;42.820;23.374;2023-03-14T04:43:38;12.80;;;4.55;;
77246;SDS011;66279;42.820;23.374;2023-03-14T04:46:04;9.60;;;4.03;;
77246;SDS011;66279;42.820;23.374;2023-03-14T04:48:29;14.48;;;5.18;;
77246;SDS011;66279;42.820;23.374;2023-03-14T04:50:55;11.43;;;4.63;;
77246;SDS011;66279;42.820;23.374;2023-03-14T04:53:21;23.58;;;5.97;;
77246;SDS011;66279;42.820;23.374;2023-03-14T04:55:50;9.90;;;5.25;;
77246;SDS011;66279;42.820;23.374;2023-03-14T04:58:17;9.00;;;4.20;;
77246;SDS011;66279;42.820;23.374;2023-03-14T05:00:43;22.00;;;8.25;;
77246;SDS011;66279;42.820;23.374;2023-03-14T05:03:09;15.48;;;5.80;;
77246;SDS011;66279;42.820;23.374;2023-03-14T05:05:34;13.68;;;6.85;;
77246;SDS011;66279;42.820;23.374;2023-03-14T05:08:00;20.85;;;6.13;;
77246;SDS011;66279;42.820;23.374;2023-03-14T05:10:25;11.18;;;5.05;;
77246;SDS011;66279;42.820;23.374;2023-03-14T05:12:51;15.15;;;8.80;;
77246;SDS011;66279;42.820;23.374;2023-03-14T05:15:16;21.38;;;9.15;;
77246;SDS011;66279;42.820;23.374;2023-03-14T05:17:42;12.77;;;5.63;;
77246;SDS011;66279;42.820;23.374;2023-03-14T05:20:10;17.38;;;6.45;;
77246;SDS011;66279;42.820;23.374;2023-03-14T05:22:39;20.73;;;7.68;;
77246;SDS011;66279;42.820;23.374;2023-03-14T05:25:05;27.25;;;9.05;;
77246;SDS011;66279;42.820;23.374;2023-03-14T05:27:32;37.70;;;10.88;;
77246;SDS011;66279;42.820;23.374;2023-03-14T05:29:58;46.67;;;11.45;;
77246;SDS011;66279;42.820;23.374;2023-03-14T05:32:23;26.77;;;8.85;;
77246;SDS011;66279;42.820;23.374;2023-03-14T05:34:49;23.15;;;9.30;;
77246;SDS011;66279;42.820;23.374;2023-03-14T05:37:14;34.58;;;11.00;;
77246;SDS011;66279;42.820;23.374;2023-03-14T05:39:40;42.38;;;14.43;;
77246;SDS011;66279;42.820;23.374;2023-03-14T05:42:05;43.80;;;15.63;;
77246;SDS011;66279;42.820;23.374;2023-03-14T05:44:31;43.72;;;15.70;;
77246;SDS011;66279;42.820;23.374;2023-03-14T05:46:56;64.43;;;21.45;;
77246;SDS011;66279;42.820;23.374;2023-03-14T05:49:23;95.10;;;31.52;;
77246;SDS011;66279;42.820;23.374;2023-03-14T05:51:48;86.35;;;25.30;;
77246;SDS011;66279;42.820;23.374;2023-03-14T05:54:14;90.78;;;26.98;;
77246;SDS011;66279;42.820;23.374;2023-03-14T05:56:40;77.65;;;24.95;;
77246;SDS011;66279;42.820;23.374;2023-03-14T06:04:02;88.15;;;28.90;;
77246;SDS011;66279;42.820;23.374;2023-03-14T06:16:18;55.95;;;22.25;;
77246;SDS011;66279;42.820;23.374;2023-03-14T06:18:44;74.22;;;24.83;;
77246;SDS011;66279;42.820;23.374;2023-03-14T06:21:12;78.45;;;27.77;;
77246;SDS011;66279;42.820;23.374;2023-03-14T06:23:38;68.43;;;24.70;;
77246;SDS011;66279;42.820;23.374;2023-03-14T06:26:04;50.08;;;19.08;;
77246;SDS011;66279;42.820;23.374;2023-03-14T06:28:30;39.83;;;18.08;;
77246;SDS011;66279;42.820;23.374;2023-03-14T06:30:55;49.95;;;17.65;;
77246;SDS011;66279;42.820;23.374;2023-03-14T06:33:21;51.78;;;18.27;;
77246;SDS011;66279;42.820;23.374;2023-03-14T06:35:46;45.35;;;17.98;;
77246;SDS011;66279;42.820;23.374;2023-03-14T06:38:12;48.85;;;17.40;;
77246;SDS011;66279;42.820;23.374;2023-03-14T06:40:37;50.95;;;19.25;;
77246;SDS011;66279;42.820;23.374;2023-03-14T06:43:03;159.05;;;43.10;;
77246;SDS011;66279;42.820;23.374;2023-03-14T06:45:28;92.45;;;29.73;;
77246;SDS011;66279;42.820;23.374;2023-03-14T06:47:54;75.57;;;26.30;;
77246;SDS011;66279;42.820;23.374;2023-03-14T06:50:19;47.85;;;17.58;;
77246;SDS011;66279;42.820;23.374;2023-03-14T06:52:47;37.75;;;15.43;;
77246;SDS011;66279;42.820;23.374;2023-03-14T06:55:13;38.78;;;16.73;;
77246;SDS011;66279;42.820;23.374;2023-03-14T06:57:39;45.35;;;15.65;;
77246;SDS011;66279;42.820;23.374;2023-03-14T07:00:04;33.17;;;12.73;;
77246;SDS011;66279;42.820;23.374;2023-03-14T07:02:31;34.85;;;14.75;;
77246;SDS011;66279;42.820;23.374;2023-03-14T07:04:56;44.25;;;15.82;;
77246;SDS011;66279;42.820;23.374;2023-03-14T07:07:22;40.30;;;14.70;;
77246;SDS011;66279;42.820;23.374;2023-03-14T07:09:47;138.25;;;32.70;;
77246;SDS011;66279;42.820;23.374;2023-03-14T07:12:13;43.80;;;14.88;;
77246;SDS011;66279;42.820;23.374;2023-03-14T07:14:38;60.05;;;17.90;;
77246;SDS011;66279;42.820;23.374;2023-03-14T07:17:04;41.15;;;15.90;;
77246;SDS011;66279;42.820;23.374;2023-03-14T07:19:29;72.63;;;22.17;;
77246;SDS011;66279;42.820;23.374;2023-03-14T07:21:55;38.88;;;14.00;;
77246;SDS011;66279;42.820;23.374;2023-03-14T07:24:21;36.03;;;12.68;;
77246;SDS011;66279;42.820;23.374;2023-03-14T07:26:46;34.08;;;13.63;;
77246;SDS011;66279;42.820;23.374;2023-03-14T07:29:12;69.43;;;19.90;;
77246;SDS011;66279;42.820;23.374;2023-03-14T07:31:37;39.95;;;11.73;;
77246;SDS011;66279;42.820;23.374;2023-03-14T07:34:03;25.80;;;10.40;;
77246;SDS011;66279;42.820;23.374;2023-03-14T07:36:28;22.20;;;9.55;;
77246;SDS011;66279;42.820;23.374;2023-03-14T07:38:54;64.82;;;18.30;;
77246;SDS011;66279;42.820;23.374;2023-03-14T07:41:19;62.38;;;17.02;;
77246;SDS011;66279;42.820;23.374;2023-03-14T07:43:46;81.78;;;21.98;;
77246;SDS011;66279;42.820;23.374;2023-03-14T07:46:11;66.25;;;21.13;;
77246;SDS011;66279;42.820;23.374;2023-03-14T07:48:37;38.65;;;12.80;;
77246;SDS011;66279;42.820;23.374;2023-03-14T07:51:03;30.23;;;12.25;;
77246;SDS011;66279;42.820;23.374;2023-03-14T07:53:29;89.78;;;23.13;;
77246;SDS011;66279;42.820;23.374;2023-03-14T07:55:54;40.47;;;14.48;;
77246;SDS011;66279;42.820;23.374;2023-03-14T07:58:20;32.00;;;12.75;;
77246;SDS011;66279;42.820;23.374;2023-03-14T08:00:50;47.15;;;17.40;;
77246;SDS011;66279;42.820;23.374;2023-03-14T08:03:16;104.72;;;31.77;;
77246;SDS011;66279;42.820;23.374;2023-03-14T08:05:42;28.33;;;12.82;;
77246;SDS011;66279;42.820;23.374;2023-03-14T08:08:07;31.85;;;13.73;;
77246;SDS011;66279;42.820;23.374;2023-03-14T08:10:33;26.92;;;12.35;;
77246;SDS011;66279;42.820;23.374;2023-03-14T08:12:59;31.23;;;14.38;;
77246;SDS011;66279;42.820;23.374;2023-03-14T08:15:26;31.40;;;12.43;;
77246;SDS011;66279;42.820;23.374;2023-03-14T08:17:53;31.25;;;11.10;;
77246;SDS011;66279;42.820;23.374;2023-03-14T08:20:19;29.17;;;12.20;;
77246;SDS011;66279;42.820;23.374;2023-03-14T08:22:46;65.28;;;26.92;;
77246;SDS011;66279;42.820;23.374;2023-03-14T08:25:12;33.78;;;13.80;;
77246;SDS011;66279;42.820;23.374;2023-03-14T08:27:37;38.38;;;15.10;;
77246;SDS011;66279;42.820;23.374;2023-03-14T08:30:07;32.42;;;12.90;;
77246;SDS011;66279;42.820;23.374;2023-03-14T08:32:35;36.22;;;15.48;;
77246;SDS011;66279;42.820;23.374;2023-03-14T08:35:00;45.92;;;18.10;;
77246;SDS011;66279;42.820;23.374;2023-03-14T08:37:26;32.17;;;13.43;;
77246;SDS011;66279;42.820;23.374;2023-03-14T08:39:52;27.45;;;11.40;;
77246;SDS011;66279;42.820;23.374;2023-03-14T08:42:18;29.60;;;13.27;;
77246;SDS011;66279;42.820;23.374;2023-03-14T08:44:44;35.33;;;13.77;;
77246;SDS011;66279;42.820;23.374;2023-03-14T08:47:09;27.27;;;11.43;;
77246;SDS011;66279;42.820;23.374;2023-03-14T08:49:35;20.55;;;10.50;;
77246;SDS011;66279;42.820;23.374;2023-03-14T08:52:02;26.42;;;10.65;;
77246;SDS011;66279;42.820;23.374;2023-03-14T08:54:28;19.38;;;9.05;;
77246;SDS011;66279;42.820;23.374;2023-03-14T08:56:54;19.75;;;8.90;;
77246;SDS011;66279;42.820;23.374;2023-03-14T08:59:20;17.70;;;7.97;;
77246;SDS011;66279;42.820;23.374;2023-03-14T09:01:45;23.58;;;8.40;;
77246;SDS011;66279;42.820;23.374;2023-03-14T09:04:11;13.30;;;6.43;;
77246;SDS011;66279;42.820;23.374;2023-03-14T09:06:36;14.15;;;7.45;;
77246;SDS011;66279;42.820;23.374;2023-03-14T09:09:02;12.90;;;6.43;;
77246;SDS011;66279;42.820;23.374;2023-03-14T09:11:28;13.60;;;6.35;;
77246;SDS011;66279;42.820;23.374;2023-03-14T09:13:54;14.27;;;7.00;;
77246;SDS011;66279;42.820;23.374;2023-03-14T09:16:19;14.55;;;6.38;;
77246;SDS011;66279;42.820;23.374;2023-03-14T09:18:44;12.82;;;6.20;;
77246;SDS011;66279;42.820;23.374;2023-03-14T09:21:10;15.43;;;7.45;;
77246;SDS011;66279;42.820;23.374;2023-03-14T09:23:36;13.05;;;6.65;;
77246;SDS011;66279;42.820;23.374;2023-03-14T09:26:01;18.65;;;7.28;;
77246;SDS011;66279;42.820;23.374;2023-03-14T09:28:27;15.77;;;6.57;;
77246;SDS011;66279;42.820;23.374;2023-03-14T15:06:21;11.35;;;4.38;;
77246;SDS011;66279;42.820;23.374;2023-03-14T15:08:52;13.43;;;5.13;;
77246;SDS011;66279;42.820;23.374;2023-03-14T15:11:18;17.92;;;5.90;;
77246;SDS011;66279;42.820;23.374;2023-03-14T15:13:49;17.17;;;6.15;;
77246;SDS011;66279;42.820;23.374;2023-03-14T15:16:16;8.18;;;4.40;;
77246;SDS011;66279;42.820;23.374;2023-03-14T15:18:44;14.68;;;4.50;;
77246;SDS011;66279;42.820;23.374;2023-03-14T15:21:15;12.60;;;5.68;;
77246;SDS011;66279;42.820;23.374;2023-03-14T15:23:40;10.05;;;4.97;;
77246;SDS011;66279;42.820;23.374;2023-03-14T15:26:19;14.80;;;6.35;;
77246;SDS011;66279;42.820;23.374;2023-03-14T15:28:49;22.63;;;5.95;;
77246;SDS011;66279;42.820;23.374;2023-03-14T15:31:16;17.85;;;5.85;;
77246;SDS011;66279;42.820;23.374;2023-03-14T15:33:43;8.90;;;4.90;;
77246;SDS011;66279;42.820;23.374;2023-03-14T15:36:29;11.93;;;5.50;;
77246;SDS011;66279;42.820;23.374;2023-03-14T15:38:56;22.55;;;9.15;;
77246;SDS011;66279;42.820;23.374;2023-03-14T15:41:23;23.73;;;7.88;;
77246;SDS011;66279;42.820;23.374;2023-03-14T15:43:49;12.80;;;6.28;;
77246;SDS011;66279;42.820;23.374;2023-03-14T15:46:15;17.35;;;6.40;;
77246;SDS011;66279;42.820;23.374;2023-03-14T15:48:42;18.55;;;6.38;;
77246;SDS011;66279;42.820;23.374;2023-03-14T15:51:08;23.70;;;9.45;;
77246;SDS011;66279;42.820;23.374;2023-03-14T15:53:34;22.70;;;11.25;;
77246;SDS011;66279;42.820;23.374;2023-03-14T15:56:02;84.40;;;31.92;;
77246;SDS011;66279;42.820;23.374;2023-03-14T15:58:28;111.93;;;40.25;;
77246;SDS011;66279;42.820;23.374;2023-03-14T16:00:54;154.40;;;53.50;;
77246;SDS011;66279;42.820;23.374;2023-03-14T16:03:19;87.68;;;29.27;;
77246;SDS011;66279;42.820;23.374;2023-03-14T16:05:45;118.65;;;40.45;;
77246;SDS011;66279;42.820;23.374;2023-03-14T16:08:11;61.22;;;24.05;;
77246;SDS011;66279;42.820;23.374;2023-03-14T16:10:36;74.28;;;28.20;;
77246;SDS011;66279;42.820;23.374;2023-03-14T16:13:03;172.40;;;54.60;;
77246;SDS011;66279;42.820;23.374;2023-03-14T16:15:29;184.93;;;49.42;;
77246;SDS011;66279;42.820;23.374;2023-03-14T16:17:55;156.15;;;56.63;;
77246;SDS011;66279;42.820;23.374;2023-03-14T16:20:21;109.57;;;37.20;;
77246;SDS011;66279;42.820;23.374;2023-03-14T16:22:48;74.88;;;30.35;;
77246;SDS011;66279;42.820;23.374;2023-03-14T16:25:13;45.70;;;19.58;;
77246;SDS011;66279;42.820;23.374;2023-03-14T16:27:39;56.15;;;20.27;;
77246;SDS011;66279;42.820;23.374;2023-03-14T16:30:06;39.92;;;17.13;;
77246;SDS011;66279;42.820;23.374;2023-03-14T16:32:33;35.15;;;14.63;;
77246;SDS011;66279;42.820;23.374;2023-03-14T16:35:13;29.25;;;12.98;;
77246;SDS011;66279;42.820;23.374;2023-03-14T16:37:38;28.38;;;12.38;;
77246;SDS011;66279;42.820;23.374;2023-03-14T16:40:04;27.77;;;11.57;;
77246;SDS011;66279;42.820;23.374;2023-03-14T16:42:30;45.45;;;15.63;;
77246;SDS011;66279;42.820;23.374;2023-03-14T16:44:55;31.30;;;13.32;;
77246;SDS011;66279;42.820;23.374;2023-03-14T17:21:52;68.07;;;21.45;;
77246;SDS011;66279;42.820;23.374;2023-03-14T17:24:17;52.85;;;18.63;;
77246;SDS011;66279;42.820;23.374;2023-03-14T17:26:43;58.08;;;20.83;;
77246;SDS011;66279;42.820;23.374;2023-03-14T17:29:09;49.80;;;17.27;;
77246;SDS011;66279;42.820;23.374;2023-03-14T17:31:34;74.20;;;22.35;;
77246;SDS011;66279;42.820;23.374;2023-03-14T17:34:00;62.53;;;18.13;;
77246;SDS011;66279;42.820;23.374;2023-03-14T17:36:26;47.83;;;15.95;;
77246;SDS011;66279;42.820;23.374;2023-03-14T17:38:54;58.83;;;18.40;;
77246;SDS011;66279;42.820;23.374;2023-03-14T17:41:23;43.85;;;12.98;;
77246;SDS011;66279;42.820;23.374;2023-03-14T17:43:48;42.33;;;14.93;;
77246;SDS011;66279;42.820;23.374;2023-03-14T17:46:14;35.75;;;17.17;;
77246;SDS011;66279;42.820;23.374;2023-03-14T17:48:41;45.78;;;17.48;;
77246;SDS011;66279;42.820;23.374;2023-03-14T17:51:11;50.45;;;17.75;;
77246;SDS011;66279;42.820;23.374;2023-03-14T17:53:37;39.80;;;16.98;;
77246;SDS011;66279;42.820;23.374;2023-03-14T17:56:03;44.22;;;14.95;;
77246;SDS011;66279;42.820;23.374;2023-03-14T17:58:29;40.60;;;11.85;;
77246;SDS011;66279;42.820;23.374;2023-03-14T18:01:06;34.08;;;11.07;;
77246;SDS011;66279;42.820;23.374;2023-03-14T18:03:35;41.90;;;11.23;;
77246;SDS011;66279;42.820;23.374;2023-03-14T18:06:04;34.60;;;10.85;;
77246;SDS011;66279;42.820;23.374;2023-03-14T18:08:30;33.78;;;11.18;;
77246;SDS011;66279;42.820;23.374;2023-03-14T18:10:56;33.58;;;11.80;;
77246;SDS011;66279;42.820;23.374;2023-03-14T18:13:21;30.67;;;10.95;;
77246;SDS011;66279;42.820;23.374;2023-03-14T18:15:47;39.67;;;13.10;;
77246;SDS011;66279;42.820;23.374;2023-03-14T18:18:12;27.95;;;10.43;;
77246;SDS011;66279;42.820;23.374;2023-03-14T18:20:38;33.55;;;11.20;;
77246;SDS011;66279;42.820;23.374;2023-03-14T18:23:04;28.88;;;10.00;;
77246;SDS011;66279;42.820;23.374;2023-03-14T18:25:31;30.88;;;10.93;;
77246;SDS011;66279;42.820;23.374;2023-03-14T18:30:24;46.17;;;11.93;;
77246;SDS011;66279;42.820;23.374;2023-03-14T18:32:49;53.17;;;14.95;;
77246;SDS011;66279;42.820;23.374;2023-03-14T18:35:15;49.00;;;13.05;;
77246;SDS011;66279;42.820;23.374;2023-03-14T18:37:41;88.18;;;19.67;;
77246;SDS011;66279;42.820;23.374;2023-03-14T18:40:06;59.08;;;15.73;;
77246;SDS011;66279;42.820;23.374;2023-03-14T18:42:34;33.95;;;11.35;;
77246;SDS011;66279;42.820;23.374;2023-03-14T18:45:00;34.00;;;11.73;;
77246;SDS011;66279;42.820;23.374;2023-03-14T18:47:25;39.28;;;12.93;;
77246;SDS011;66279;42.820;23.374;2023-03-14T18:49:51;34.88;;;11.65;;
77246;SDS011;66279;42.820;23.374;2023-03-14T18:52:17;58.22;;;13.20;;
77246;SDS011;66279;42.820;23.374;2023-03-14T18:54:42;57.67;;;16.67;;
77246;SDS011;66279;42.820;23.374;2023-03-14T18:57:08;45.65;;;13.65;;
77246;SDS011;66279;42.820;23.374;2023-03-14T18:59:33;51.28;;;15.95;;
77246;SDS011;66279;42.820;23.374;2023-03-14T19:04:35;52.42;;;13.90;;
77246;SDS011;66279;42.820;23.374;2023-03-14T19:07:01;42.25;;;12.98;;
77246;SDS011;66279;42.820;23.374;2023-03-14T19:09:27;51.95;;;15.13;;
77246;SDS011;66279;42.820;23.374;2023-03-14T19:11:53;40.50;;;13.65;;
77246;SDS011;66279;42.820;23.374;2023-03-14T19:16:47;37.30;;;12.52;;
77246;SDS011;66279;42.820;23.374;2023-03-14T19:19:13;67.57;;;18.63;;
77246;SDS011;66279;42.820;23.374;2023-03-14T19:21:39;43.22;;;13.38;;
77246;SDS011;66279;42.820;23.374;2023-03-14T19:24:04;49.33;;;14.25;;
77246;SDS011;66279;42.820;23.374;2023-03-14T19:26:31;46.78;;;12.52;;
77246;SDS011;66279;42.820;23.374;2023-03-14T19:31:28;41.95;;;11.07;;
77246;SDS011;66279;42.820;23.374;2023-03-14T19:33:53;38.80;;;12.02;;
77246;SDS011;66279;42.820;23.374;2023-03-14T19:36:20;48.58;;;12.02;;
77246;SDS011;66279;42.820;23.374;2023-03-14T19:38:53;50.10;;;13.43;;
77246;SDS011;66279;42.820;23.374;2023-03-14T19:46:15;42.95;;;9.73;;
77246;SDS011;66279;42.820;23.374;2023-03-14T19:48:41;50.95;;;14.02;;
77246;SDS011;66279;42.820;23.374;2023-03-14T19:51:09;62.10;;;13.73;;
77246;SDS011;66279;42.820;23.374;2023-03-14T19:53:36;73.57;;;17.30;;
77246;SDS011;66279;42.820;23.374;2023-03-14T19:56:02;61.13;;;14.85;;
77246;SDS011;66279;42.820;23.374;2023-03-14T19:58:28;81.75;;;18.30;;
77246;SDS011;66279;42.820;23.374;2023-03-14T20:00:54;73.22;;;17.05;;
77246;SDS011;66279;42.820;23.374;2023-03-14T20:03:21;64.97;;;14.15;;
77246;SDS011;66279;42.820;23.374;2023-03-14T20:05:50;80.60;;;17.60;;
77246;SDS011;66279;42.820;23.374;2023-03-14T20:08:17;52.33;;;13.40;;
77246;SDS011;66279;42.820;23.374;2023-03-14T20:10:44;62.88;;;15.73;;
77246;SDS011;66279;42.820;23.374;2023-03-14T20:13:10;56.40;;;16.42;;
77246;SDS011;66279;42.820;23.374;2023-03-14T20:15:35;75.05;;;19.13;;
77246;SDS011;66279;42.820;23.374;2023-03-14T20:18:01;62.92;;;16.58;;
77246;SDS011;66279;42.820;23.374;2023-03-14T20:20:27;56.03;;;16.00;;
77246;SDS011;66279;42.820;23.374;2023-03-14T20:22:53;82.57;;;17.63;;
77246;SDS011;66279;42.820;23.374;2023-03-14T20:25:18;48.95;;;13.77;;
77246;SDS011;66279;42.820;23.374;2023-03-14T20:27:46;42.80;;;12.40;;
77246;SDS011;66279;42.820;23.374;2023-03-14T20:30:13;55.97;;;12.70;;
77246;SDS011;66279;42.820;23.374;2023-03-14T20:35:08;46.60;;;12.65;;
77246;SDS011;66279;42.820;23.374;2023-03-14T20:37:35;32.97;;;11.38;;
77246;SDS011;66279;42.820;23.374;2023-03-14T20:40:01;44.15;;;13.00;;
77246;SDS011;66279;42.820;23.374;2023-03-14T20:42:31;32.25;;;10.43;;
77246;SDS011;66279;42.820;23.374;2023-03-14T20:44:58;27.60;;;11.15;;
77246;SDS011;66279;42.820;23.374;2023-03-14T20:47:24;30.77;;;10.82;;
77246;SDS011;66279;42.820;23.374;2023-03-14T20:49:50;35.30;;;11.45;;
77246;SDS011;66279;42.820;23.374;2023-03-14T20:52:17;38.15;;;11.82;;
77246;SDS011;66279;42.820;23.374;2023-03-14T20:54:42;39.88;;;12.07;;
77246;SDS011;66279;42.820;23.374;2023-03-14T20:57:08;48.75;;;15.40;;
77246;SDS011;66279;42.820;23.374;2023-03-14T20:59:33;51.95;;;13.68;;
77246;SDS011;66279;42.820;23.374;2023-03-14T21:01:59;50.60;;;15.68;;
77246;SDS011;66279;42.820;23.374;2023-03-14T21:04:25;56.40;;;16.92;;
77246;SDS011;66279;42.820;23.374;2023-03-14T21:06:51;48.50;;;14.13;;
77246;SDS011;66279;42.820;23.374;2023-03-14T21:11:49;39.75;;;13.23;;
77246;SDS011;66279;42.820;23.374;2023-03-14T21:14:15;34.95;;;11.65;;
77246;SDS011;66279;42.820;23.374;2023-03-14T21:19:10;31.27;;;9.88;;
77246;SDS011;66279;42.820;23.374;2023-03-14T21:21:36;48.38;;;11.90;;
77246;SDS011;66279;42.820;23.374;2023-03-14T21:24:02;41.00;;;12.13;;
77246;SDS011;66279;42.820;23.374;2023-03-14T21:26:28;33.15;;;10.52;;
77246;SDS011;66279;42.820;23.374;2023-03-14T21:28:55;25.73;;;10.65;;
77246;SDS011;66279;42.820;23.374;2023-03-14T21:31:21;28.88;;;9.77;;
77246;SDS011;66279;42.820;23.374;2023-03-14T21:33:47;24.73;;;10.05;;
77246;SDS011;66279;42.820;23.374;2023-03-14T21:36:13;28.25;;;10.10;;
77246;SDS011;66279;42.820;23.374;2023-03-14T21:38:38;34.67;;;11.27;;
77246;SDS011;66279;42.820;23.374;2023-03-14T21:41:04;25.60;;;8.63;;
77246;SDS011;66279;42.820;23.374;2023-03-14T21:43:31;23.45;;;7.68;;
77246;SDS011;66279;42.820;23.374;2023-03-14T21:45:57;20.45;;;7.82;;
77246;SDS011;66279;42.820;23.374;2023-03-14T21:48:23;28.17;;;9.70;;
77246;SDS011;66279;42.820;23.374;2023-03-14T21:50:49;27.60;;;8.70;;
77246;SDS011;66279;42.820;23.374;2023-03-14T21:53:15;22.50;;;8.38;;
77246;SDS011;66279;42.820;23.374;2023-03-14T21:55:41;26.35;;;9.05;;
77246;SDS011;66279;42.820;23.374;2023-03-14T21:58:08;30.25;;;9.07;;
77246;SDS011;66279;42.820;23.374;2023-03-14T22:00:38;19.58;;;7.40;;
77246;SDS011;66279;42.820;23.374;2023-03-14T22:05:43;21.00;;;7.45;;
77246;SDS011;66279;42.820;23.374;2023-03-14T22:08:14;19.08;;;7.28;;
77246;SDS011;66279;42.820;23.374;2023-03-14T22:10:41;17.85;;;6.03;;
77246;SDS011;66279;42.820;23.374;2023-03-14T22:13:08;16.85;;;5.72;;
77246;SDS011;66279;42.820;23.374;2023-03-14T22:15:34;16.65;;;6.40;;
77246;SDS011;66279;42.820;23.374;2023-03-14T22:17:59;19.55;;;6.57;;
77246;SDS011;66279;42.820;23.374;2023-03-14T22:20:25;15.95;;;5.70;;
77246;SDS011;66279;42.820;23.374;2023-03-14T22:22:50;15.98;;;6.32;;
77246;SDS011;66279;42.820;23.374;2023-03-14T22:25:16;16.65;;;7.22;;
77246;SDS011;66279;42.820;23.374;2023-03-14T22:27:41;17.88;;;6.18;;
77246;SDS011;66279;42.820;23.374;2023-03-14T22:30:07;14.75;;;5.57;;
77246;SDS011;66279;42.820;23.374;2023-03-14T22:32:34;21.63;;;5.60;;
77246;SDS011;66279;42.820;23.374;2023-03-14T22:35:00;11.20;;;5.00;;
77246;SDS011;66279;42.820;23.374;2023-03-14T22:37:26;21.00;;;5.90;;
77246;SDS011;66279;42.820;23.374;2023-03-14T22:39:51;14.68;;;5.30;;
77246;SDS011;66279;42.820;23.374;2023-03-14T22:42:17;15.93;;;5.18;;
77246;SDS011;66279;42.820;23.374;2023-03-14T22:44:42;18.52;;;6.00;;
77246;SDS011;66279;42.820;23.374;2023-03-14T22:47:08;17.15;;;6.22;;
77246;SDS011;66279;42.820;23.374;2023-03-14T22:49:34;17.42;;;5.93;;